createdAt,value
2022-09-02T00:01:19.498Z,23.16
2022-09-02T00:03:47.602Z,23.29
2022-09-02T00:06:15.252Z,22.97
2022-09-02T00:08:43.019Z,23.25
2022-09-02T00:11:14.429Z,23.40
2022-09-02T00:13:43.297Z,23.53
2022-09-02T00:16:11.475Z,23.73
2022-09-02T00:18:39.712Z,23.71
2022-09-02T00:21:13.685Z,23.79
2022-09-02T00:23:41.766Z,23.80
2022-09-02T00:26:08.454Z,23.52
2022-09-02T00:28:35.642Z,23.83
2022-09-02T00:31:02.511Z,23.70
2022-09-02T00:33:29.790Z,23.59
2022-09-02T00:35:59.346Z,23.43
2022-09-02T00:38:26.087Z,23.20
2022-09-02T00:40:54.034Z,23.36
2022-09-02T00:43:41.999Z,23.22
2022-09-02T00:46:10.139Z,23.29
2022-09-02T00:48:41.357Z,23.38
2022-09-02T00:51:09.916Z,23.27
2022-09-02T00:53:39.520Z,23.14
2022-09-02T00:56:13.131Z,22.96
2022-09-02T00:58:43.098Z,22.66
2022-09-02T01:01:11.773Z,22.78
2022-09-02T01:03:41.046Z,22.91
2022-09-02T01:06:10.334Z,23.14
2022-09-02T01:08:39.317Z,23.15
2022-09-02T01:11:06.766Z,23.17
2022-09-02T01:13:39.068Z,22.58
2022-09-02T01:16:17.859Z,22.42
2022-09-02T01:18:50.370Z,22.57
2022-09-02T01:21:17.863Z,22.56
2022-09-02T01:23:46.596Z,22.98
2022-09-02T01:26:13.619Z,22.69
2022-09-02T01:28:40.839Z,22.64
2022-09-02T01:31:07.826Z,22.52
2022-09-02T01:33:35.046Z,22.42
2022-09-02T01:36:04.307Z,22.33
2022-09-02T01:38:32.624Z,21.57
2022-09-02T01:40:59.914Z,21.88
2022-09-02T01:43:28.293Z,21.84
2022-09-02T01:45:57.484Z,21.61
2022-09-02T01:48:24.570Z,21.12
2022-09-02T01:50:59.128Z,21.42
2022-09-02T01:53:26.533Z,20.79
2022-09-02T01:55:53.313Z,21.45
2022-09-02T01:58:20.434Z,20.99
2022-09-02T02:00:48.195Z,21.46
2022-09-02T02:03:15.422Z,21.42
2022-09-02T02:05:42.380Z,21.77
2022-09-02T02:08:09.524Z,20.98
2022-09-02T02:10:36.819Z,20.65
2022-09-02T02:13:03.701Z,20.79
2022-09-02T02:17:56.311Z,21.11
2022-09-02T02:20:23.173Z,20.87
2022-09-02T02:22:49.942Z,21.04
2022-09-02T02:25:17.179Z,21.73
2022-09-02T02:27:44.923Z,21.34
2022-09-02T02:30:13.936Z,21.65
2022-09-02T02:32:41.099Z,21.99
2022-09-02T02:35:08.445Z,22.09
2022-09-02T02:37:35.209Z,22.23
2022-09-02T02:40:02.353Z,22.07
2022-09-02T02:42:29.165Z,21.99
2022-09-02T02:44:58.450Z,21.79
2022-09-02T02:47:25.226Z,21.89
2022-09-02T02:49:51.880Z,22.14
2022-09-02T02:52:18.667Z,22.12
2022-09-02T02:54:45.475Z,22.21
2022-09-02T02:57:12.440Z,22.39
2022-09-02T02:59:39.302Z,22.19
2022-09-02T03:02:06.666Z,22.26
2022-09-02T03:04:34.270Z,21.89
2022-09-02T03:07:01.045Z,21.74
2022-09-02T03:09:27.772Z,21.71
2022-09-02T03:11:54.507Z,22.05
2022-09-02T03:14:21.120Z,22.16
2022-09-02T03:16:47.888Z,22.25
2022-09-02T03:19:14.667Z,22.23
2022-09-02T03:21:42.141Z,22.12
2022-09-02T03:24:12.021Z,21.63
2022-09-02T03:26:40.665Z,22.10
2022-09-02T03:29:07.415Z,22.01
2022-09-02T03:31:34.305Z,22.07
2022-09-02T03:34:01.600Z,22.07
2022-09-02T03:36:32.023Z,21.89
2022-09-02T03:38:59.705Z,21.93
2022-09-02T03:41:26.641Z,22.28
2022-09-02T03:43:53.357Z,22.22
2022-09-02T03:46:20.316Z,22.20
2022-09-02T03:48:47.904Z,22.32
2022-09-02T03:51:15.178Z,21.81
2022-09-02T03:53:41.970Z,21.85
2022-09-02T03:56:12.695Z,22.06
2022-09-02T03:58:40.377Z,22.19
2022-09-02T04:01:12.624Z,22.04
2022-09-02T04:03:39.306Z,21.97
2022-09-02T04:06:06.434Z,22.17
2022-09-02T04:08:33.045Z,22.34
2022-09-02T04:10:59.650Z,22.33
2022-09-02T04:13:26.271Z,22.46
2022-09-02T04:15:53.071Z,22.15
2022-09-02T04:18:19.832Z,22.15
2022-09-02T04:20:46.519Z,22.09
2022-09-02T04:23:13.343Z,22.07
2022-09-02T04:25:42.111Z,22.28
2022-09-02T04:28:09.667Z,22.24
2022-09-02T04:30:39.887Z,22.22
2022-09-02T04:33:06.512Z,22.19
2022-09-02T04:35:33.315Z,21.82
2022-09-02T04:38:00.146Z,21.83
2022-09-02T04:40:27.866Z,21.85
2022-09-02T04:42:55.673Z,21.94
2022-09-02T04:45:24.637Z,21.91
2022-09-02T04:47:54.540Z,22.03
2022-09-02T04:50:21.452Z,22.23
2022-09-02T04:52:48.066Z,22.33
2022-09-02T04:55:14.865Z,22.22
2022-09-02T04:57:42.528Z,22.18
2022-09-02T05:00:10.395Z,22.18
2022-09-02T05:02:37.142Z,22.07
2022-09-02T05:05:04.073Z,22.14
2022-09-02T05:07:30.918Z,21.78
2022-09-02T05:09:59.129Z,21.64
2022-09-02T05:12:28.225Z,21.57
2022-09-02T05:14:57.122Z,21.70
2022-09-02T05:17:24.008Z,21.92
2022-09-02T05:19:50.721Z,21.59
2022-09-02T05:22:18.021Z,21.38
2022-09-02T05:24:45.146Z,21.36
2022-09-02T05:27:13.108Z,21.57
2022-09-02T05:29:42.918Z,22.10
2022-09-02T05:32:11.896Z,21.90
2022-09-02T05:34:38.864Z,21.81
2022-09-02T05:37:05.959Z,22.02
2022-09-02T05:39:32.755Z,22.12
2022-09-02T05:41:59.762Z,22.02
2022-09-02T05:44:26.542Z,21.97
2022-09-02T05:46:53.318Z,21.87
2022-09-02T05:49:21.562Z,21.88
2022-09-02T05:51:54.341Z,21.81
2022-09-02T05:54:30.619Z,21.91
2022-09-02T05:57:00.911Z,22.09
2022-09-02T05:59:30.088Z,22.25
2022-09-02T06:01:57.929Z,22.17
2022-09-02T06:04:26.189Z,22.05
2022-09-02T06:06:52.943Z,22.33
2022-09-02T06:09:22.766Z,22.41
2022-09-02T06:11:50.850Z,22.42
2022-09-02T06:14:21.761Z,22.68
2022-09-02T06:16:50.478Z,22.76
2022-09-02T06:19:20.314Z,22.77
2022-09-02T06:21:51.333Z,22.66
2022-09-02T06:24:18.145Z,22.56
2022-09-02T06:26:44.848Z,22.47
2022-09-02T06:29:11.859Z,22.59
2022-09-02T06:31:42.340Z,22.22
2022-09-02T06:34:12.478Z,22.60
2022-09-02T06:36:39.666Z,22.73
2022-09-02T06:39:06.742Z,22.76
2022-09-02T06:41:34.769Z,23.08
2022-09-02T06:44:06.940Z,23.05
2022-09-02T06:46:36.598Z,23.12
2022-09-02T06:49:05.742Z,23.15
2022-09-02T06:51:36.741Z,22.88
2022-09-02T06:54:05.286Z,23.12
2022-09-02T06:56:32.734Z,23.13
2022-09-02T06:59:00.061Z,23.11
2022-09-02T07:01:30.449Z,23.25
2022-09-02T07:04:16.469Z,23.40
2022-09-02T07:06:47.891Z,23.12
2022-09-02T07:09:18.230Z,23.48
2022-09-02T07:11:48.717Z,23.49
2022-09-02T07:14:17.225Z,23.46
2022-09-02T07:16:50.867Z,23.49
2022-09-02T07:19:20.811Z,23.40
2022-09-02T07:21:49.501Z,23.69
2022-09-02T07:24:17.698Z,23.46
2022-09-02T07:26:45.449Z,23.51
2022-09-02T07:29:12.811Z,23.43
2022-09-02T07:31:43.086Z,23.66
2022-09-02T07:34:10.684Z,23.56
2022-09-02T07:36:38.141Z,23.52
2022-09-02T07:39:07.994Z,23.51
2022-09-02T07:41:35.565Z,23.45
2022-09-02T07:44:03.271Z,23.89
2022-09-02T07:46:31.648Z,23.21
2022-09-02T07:48:59.853Z,23.75
2022-09-02T07:51:27.561Z,23.76
2022-09-02T07:53:57.572Z,24.15
2022-09-02T07:56:24.353Z,23.72
2022-09-02T07:58:51.265Z,23.74
2022-09-02T08:01:23.172Z,23.66
2022-09-02T08:03:50.455Z,23.02
2022-09-02T08:06:17.296Z,23.30
2022-09-02T08:08:48.698Z,23.54
2022-09-02T08:11:15.392Z,23.56
2022-09-02T08:13:42.103Z,23.81
2022-09-02T08:16:09.187Z,24.07
2022-09-02T08:18:36.370Z,23.37
2022-09-02T08:21:04.102Z,23.65
2022-09-02T08:23:37.158Z,23.65
2022-09-02T08:26:05.757Z,23.94
2022-09-02T08:28:32.687Z,23.81
2022-09-02T08:30:59.590Z,23.84
2022-09-02T08:33:26.529Z,23.82
2022-09-02T08:35:53.273Z,23.78
2022-09-02T08:38:22.142Z,23.66
2022-09-02T08:40:51.233Z,23.66
2022-09-02T08:43:26.771Z,22.98
2022-09-02T08:45:56.307Z,23.34
2022-09-02T08:48:45.376Z,23.60
2022-09-02T08:51:37.359Z,23.82
2022-09-02T08:54:16.377Z,23.24
2022-09-02T08:56:43.043Z,23.53
2022-09-02T08:59:10.372Z,23.81
2022-09-02T09:01:47.923Z,24.12
2022-09-02T09:04:51.248Z,24.18
2022-09-02T09:07:27.656Z,23.97
2022-09-02T09:10:09.715Z,23.94
2022-09-02T09:13:00.789Z,23.46
2022-09-02T09:15:56.501Z,23.58
2022-09-02T09:18:37.326Z,23.58
2022-09-02T09:21:04.501Z,23.94
2022-09-02T09:23:34.814Z,23.75
2022-09-02T09:26:11.607Z,24.02
2022-09-02T09:28:43.703Z,23.84
2022-09-02T09:31:17.649Z,23.99
2022-09-02T09:34:07.278Z,23.32
2022-09-02T09:36:39.883Z,23.84
2022-09-02T09:39:30.148Z,24.31
2022-09-02T09:42:10.074Z,24.34
2022-09-02T09:44:45.195Z,24.19
2022-09-02T09:47:20.015Z,24.31
2022-09-02T09:49:50.297Z,24.59
2022-09-02T09:52:28.881Z,24.21
2022-09-02T09:55:14.323Z,23.97
2022-09-02T09:57:44.786Z,24.67
2022-09-02T10:00:16.423Z,24.61
2022-09-02T10:02:55.532Z,24.47
2022-09-02T10:05:25.209Z,24.61
2022-09-02T10:07:59.549Z,24.80
2022-09-02T10:10:29.264Z,24.70
2022-09-02T10:13:16.676Z,24.83
2022-09-02T10:16:14.414Z,24.62
2022-09-02T10:18:41.061Z,25.28
2022-09-02T10:21:24.655Z,24.34
2022-09-02T10:24:11.389Z,24.31
2022-09-02T10:26:42.588Z,24.68
2022-09-02T10:29:11.987Z,24.67
2022-09-02T10:31:56.774Z,24.70
2022-09-02T10:34:46.401Z,24.77
2022-09-02T10:37:19.290Z,24.94
2022-09-02T10:40:08.507Z,23.66
2022-09-02T10:42:52.081Z,23.83
2022-09-02T10:45:46.645Z,24.73
2022-09-02T10:48:16.119Z,23.84
2022-09-02T10:50:54.068Z,24.47
2022-09-02T10:53:34.409Z,25.03
2022-09-02T10:56:16.004Z,25.08
2022-09-02T10:58:56.132Z,25.57
2022-09-02T11:01:28.248Z,25.58
2022-09-02T11:04:03.963Z,25.09
2022-09-02T11:06:58.637Z,25.15
2022-09-02T11:09:40.653Z,25.75
2022-09-02T11:12:09.135Z,25.66
2022-09-02T11:14:51.491Z,25.29
2022-09-02T11:17:38.346Z,25.86
2022-09-02T11:20:14.315Z,25.77
2022-09-02T11:22:55.482Z,25.33
2022-09-02T11:25:58.188Z,25.39
2022-09-02T11:28:33.219Z,25.19
2022-09-02T11:31:38.838Z,25.42
2022-09-02T11:34:35.877Z,25.74
2022-09-02T11:37:13.930Z,25.89
2022-09-02T11:39:59.046Z,25.65
2022-09-02T11:42:44.822Z,25.59
2022-09-02T11:45:39.385Z,25.75
2022-09-02T11:48:08.824Z,25.65
2022-09-02T11:50:53.781Z,25.63
2022-09-02T11:53:28.404Z,25.40
2022-09-02T11:56:05.360Z,25.57
2022-09-02T11:58:39.598Z,25.87
2022-09-02T12:01:15.226Z,25.86
2022-09-02T12:07:08.777Z,26.25
2022-09-02T12:09:48.156Z,26.28
2022-09-02T12:12:36.439Z,26.56
2022-09-02T12:15:14.994Z,26.35
2022-09-02T12:17:46.269Z,26.04
2022-09-02T12:20:40.018Z,26.76
2022-09-02T12:23:09.511Z,26.56
2022-09-02T12:25:49.643Z,26.48
2022-09-02T12:28:24.186Z,26.17
2022-09-02T12:31:08.862Z,26.30
2022-09-02T12:33:36.857Z,26.40
2022-09-02T12:36:05.759Z,26.75
2022-09-02T12:38:42.866Z,26.74
2022-09-02T12:41:25.161Z,26.89
2022-09-02T12:44:22.842Z,26.84
2022-09-02T12:47:00.674Z,26.80
2022-09-02T12:49:37.754Z,27.15
2022-09-02T12:52:12.016Z,26.56
2022-09-02T12:54:38.564Z,26.57
2022-09-02T12:57:09.776Z,26.70
2022-09-02T12:59:40.248Z,26.46
2022-09-02T13:02:31.509Z,27.01
2022-09-02T13:05:10.320Z,26.56
2022-09-02T13:08:04.205Z,26.49
2022-09-02T13:10:52.725Z,26.35
2022-09-02T13:13:38.061Z,26.29
2022-09-02T13:16:30.654Z,26.20
2022-09-02T13:19:16.659Z,26.27
2022-09-02T13:22:02.629Z,25.86
2022-09-02T13:24:57.107Z,25.60
2022-09-02T13:27:29.382Z,25.00
2022-09-02T13:30:14.131Z,23.95
2022-09-02T13:32:40.979Z,23.87
2022-09-02T13:35:23.985Z,23.79
2022-09-02T13:37:59.695Z,23.33
2022-09-02T13:40:28.143Z,23.37
2022-09-02T13:43:01.775Z,23.09
2022-09-02T13:45:31.998Z,23.08
2022-09-02T13:48:01.780Z,23.54
2022-09-02T13:50:31.285Z,23.56
2022-09-02T13:55:58.154Z,23.80
2022-09-02T13:58:31.029Z,23.95
2022-09-02T14:01:02.296Z,23.75
2022-09-02T14:03:33.089Z,23.88
2022-09-02T14:06:01.090Z,23.99
2022-09-02T14:08:30.765Z,24.23
2022-09-02T14:10:58.473Z,24.39
2022-09-02T14:13:26.138Z,24.42
2022-09-02T14:15:52.854Z,24.10
2022-09-02T14:18:22.121Z,23.53
2022-09-02T14:21:01.621Z,23.63
2022-09-02T14:23:33.467Z,23.68
2022-09-02T14:26:01.878Z,23.58
2022-09-02T14:28:34.914Z,23.71
2022-09-02T14:31:07.482Z,24.03
2022-09-02T14:33:41.702Z,23.70
2022-09-02T14:36:23.772Z,23.75
2022-09-02T14:38:57.301Z,23.93
2022-09-02T14:41:28.220Z,23.77
2022-09-02T14:43:58.236Z,23.24
2022-09-02T14:46:31.586Z,23.65
2022-09-02T14:49:04.302Z,24.10
2022-09-02T14:51:50.348Z,23.52
2022-09-02T14:54:37.703Z,23.44
2022-09-02T14:57:06.957Z,23.32
2022-09-02T14:59:34.577Z,23.51
2022-09-02T15:02:02.101Z,23.50
2022-09-02T15:04:28.782Z,23.47
2022-09-02T15:06:56.740Z,23.44
2022-09-02T15:09:23.403Z,23.63
2022-09-02T15:11:53.814Z,23.67
2022-09-02T15:14:20.821Z,23.90
2022-09-02T15:16:48.616Z,23.53
2022-09-02T15:19:15.225Z,23.18
2022-09-02T15:21:41.853Z,23.50
2022-09-02T15:24:08.769Z,23.28
2022-09-02T15:26:35.372Z,23.45
2022-09-02T15:29:03.479Z,23.46
2022-09-02T15:31:31.052Z,23.27
2022-09-02T15:33:58.279Z,23.08
2022-09-02T15:36:26.276Z,22.96
2022-09-02T15:38:53.026Z,22.97
2022-09-02T15:41:22.292Z,23.25
2022-09-02T15:43:51.094Z,23.43
2022-09-02T15:46:28.311Z,23.29
2022-09-02T15:49:00.323Z,23.23
2022-09-02T15:51:29.097Z,23.48
2022-09-02T15:54:05.161Z,23.27
2022-09-02T15:56:33.907Z,23.09
2022-09-02T15:59:03.365Z,22.69
2022-09-02T16:01:34.733Z,22.77
2022-09-02T16:04:02.503Z,22.84
2022-09-02T16:06:29.853Z,22.49
2022-09-02T16:08:56.712Z,22.50
2022-09-02T16:11:24.259Z,22.72
2022-09-02T16:13:51.580Z,22.28
2022-09-02T16:16:18.525Z,21.92
2022-09-02T16:18:50.635Z,21.60
2022-09-02T16:21:18.303Z,21.24
2022-09-02T16:23:44.966Z,21.19
2022-09-02T16:26:30.586Z,21.18
2022-09-02T16:29:03.259Z,21.80
2022-09-02T16:31:32.670Z,21.84
2022-09-02T16:34:03.889Z,22.21
2022-09-02T16:36:33.123Z,21.65
2022-09-02T16:39:01.152Z,21.62
2022-09-02T16:41:35.070Z,21.30
2022-09-02T16:44:07.509Z,21.42
2022-09-02T16:46:36.186Z,21.70
2022-09-02T16:49:03.699Z,21.90
2022-09-02T16:51:30.415Z,21.97
2022-09-02T16:54:02.721Z,22.32
2022-09-02T16:56:30.725Z,22.21
2022-09-02T16:59:02.012Z,22.10
2022-09-02T17:01:32.405Z,22.03
2022-09-02T17:04:00.417Z,21.93
2022-09-02T17:06:28.275Z,22.00
2022-09-02T17:08:55.164Z,21.88
2022-09-02T17:11:26.391Z,21.69
2022-09-02T17:14:00.131Z,21.52
2022-09-02T17:16:29.881Z,21.27
2022-09-02T17:18:56.907Z,21.24
2022-09-02T17:21:28.826Z,21.34
2022-09-02T17:23:56.628Z,21.54
2022-09-02T17:26:26.469Z,21.77
2022-09-02T17:28:56.563Z,21.93
2022-09-02T17:31:30.238Z,21.98
2022-09-02T17:33:59.807Z,21.97
2022-09-02T17:36:28.990Z,21.71
2022-09-02T17:39:02.673Z,21.76
2022-09-02T17:41:48.097Z,22.00
2022-09-02T17:44:15.618Z,21.81
2022-09-02T17:46:44.319Z,21.93
2022-09-02T17:49:17.244Z,22.08
2022-09-02T17:51:45.201Z,21.60
2022-09-02T17:54:13.022Z,21.22
2022-09-02T17:57:00.978Z,20.78
2022-09-02T17:59:33.631Z,20.78
2022-09-02T18:02:15.943Z,21.40
2022-09-02T18:05:12.015Z,21.81
2022-09-02T18:08:02.845Z,21.87
2022-09-02T18:11:04.501Z,21.85
2022-09-02T18:14:08.769Z,21.27
2022-09-02T18:17:04.478Z,21.44
2022-09-02T18:19:49.725Z,21.46
2022-09-02T18:22:31.288Z,21.59
2022-09-02T18:25:21.447Z,21.37
2022-09-02T18:28:12.527Z,21.50
2022-09-02T18:30:51.915Z,21.36
2022-09-02T18:33:30.558Z,21.56
2022-09-02T18:36:36.839Z,21.17
2022-09-02T18:39:14.857Z,21.20
2022-09-02T18:42:02.441Z,21.20
2022-09-02T18:44:36.483Z,21.27
2022-09-02T18:47:10.152Z,21.38
2022-09-02T18:49:39.697Z,21.46
2022-09-02T18:52:10.407Z,21.07
2022-09-02T18:54:57.415Z,20.99
2022-09-02T18:57:29.386Z,21.23
2022-09-02T19:00:10.318Z,21.07
2022-09-02T19:03:03.655Z,20.67
2022-09-02T19:05:32.722Z,20.20
2022-09-02T19:08:40.595Z,20.55
2022-09-02T19:11:13.627Z,20.61
2022-09-02T19:13:49.944Z,20.65
2022-09-02T19:16:42.608Z,20.61
2022-09-02T19:19:10.500Z,20.65
2022-09-02T19:21:51.815Z,20.80
2022-09-02T19:24:26.032Z,20.69
2022-09-02T19:27:07.375Z,20.45
2022-09-02T19:29:37.438Z,20.55
2022-09-02T19:32:04.760Z,20.27
2022-09-02T19:34:37.293Z,20.29
2022-09-02T19:37:04.974Z,20.54
2022-09-02T19:39:34.794Z,20.68
2022-09-02T19:42:01.685Z,20.74
2022-09-02T19:44:28.691Z,20.52
2022-09-02T19:47:42.378Z,20.71
2022-09-02T19:49:42.707Z,20.97
2022-09-02T19:52:12.227Z,21.10
2022-09-02T19:54:40.905Z,20.70
2022-09-02T19:57:07.839Z,20.70
2022-09-02T19:59:34.542Z,20.63
2022-09-02T20:02:03.529Z,20.75
2022-09-02T20:04:31.272Z,20.76
2022-09-02T20:06:58.945Z,20.89
2022-09-02T20:09:29.325Z,20.76
2022-09-02T20:11:56.564Z,20.22
2022-09-02T20:14:23.764Z,20.50
2022-09-02T20:16:57.274Z,20.82
2022-09-02T20:19:24.044Z,20.72
2022-09-02T20:21:53.567Z,20.22
2022-09-02T20:24:31.556Z,20.71
2022-09-02T20:27:02.977Z,20.60
2022-09-02T20:30:09.657Z,19.87
2022-09-02T20:32:43.901Z,20.65
2022-09-02T20:35:38.451Z,20.67
2022-09-02T20:38:26.718Z,20.34
2022-09-02T20:41:09.002Z,20.18
2022-09-02T20:44:04.788Z,20.27
2022-09-02T20:46:36.270Z,20.43
2022-09-02T20:49:08.857Z,20.70
2022-09-02T20:51:55.250Z,20.87
2022-09-02T20:54:31.581Z,20.99
2022-09-02T20:57:26.420Z,21.07
2022-09-02T20:59:58.611Z,20.88
2022-09-02T21:02:37.888Z,20.92
2022-09-02T21:05:22.831Z,20.87
2022-09-02T21:07:58.163Z,20.46
2022-09-02T21:10:32.379Z,20.21
2022-09-02T21:13:17.739Z,20.59
2022-09-02T21:15:47.285Z,20.56
2022-09-02T21:18:26.443Z,20.30
2022-09-02T21:21:02.920Z,20.23
2022-09-02T21:23:38.719Z,20.54
2022-09-02T21:26:17.034Z,20.52
2022-09-02T21:29:13.581Z,20.80
2022-09-02T21:31:48.823Z,20.75
2022-09-02T21:34:40.120Z,20.37
2022-09-02T21:37:10.006Z,20.24
2022-09-02T21:39:42.130Z,20.44
2022-09-02T21:42:41.743Z,20.62
2022-09-02T21:45:26.682Z,20.68
2022-09-02T21:48:06.504Z,20.41
2022-09-02T21:50:45.813Z,19.69
2022-09-02T21:53:24.122Z,19.87
2022-09-02T21:56:15.260Z,20.25
2022-09-02T21:58:55.864Z,20.35
2022-09-02T22:01:23.412Z,20.36
2022-09-02T22:03:56.652Z,20.38
2022-09-02T22:06:42.009Z,20.05
2022-09-02T22:09:22.300Z,20.10
2022-09-02T22:12:05.461Z,20.39
2022-09-02T22:15:07.891Z,20.32
2022-09-02T22:17:37.447Z,20.46
2022-09-02T22:20:07.591Z,20.30
2022-09-02T22:22:42.212Z,20.44
2022-09-02T22:25:14.894Z,20.35
2022-09-02T22:27:47.559Z,20.01
2022-09-02T22:30:15.703Z,20.04
2022-09-02T22:32:48.420Z,20.17
2022-09-02T22:36:00.727Z,20.37
2022-09-02T22:38:53.383Z,20.38
2022-09-02T22:41:34.350Z,20.30
2022-09-02T22:44:18.085Z,20.32
2022-09-02T22:47:07.718Z,20.39
2022-09-02T22:49:59.402Z,20.72
2022-09-02T22:52:54.804Z,20.46
2022-09-02T22:56:01.206Z,20.22
2022-09-02T22:58:56.982Z,20.23
2022-09-02T23:01:53.706Z,20.48
2022-09-02T23:04:39.797Z,20.02
2022-09-02T23:07:07.515Z,20.02
2022-09-02T23:09:37.828Z,20.42
2022-09-02T23:12:13.202Z,20.39
2022-09-02T23:15:10.982Z,19.73
2022-09-02T23:17:46.445Z,20.17
2022-09-02T23:20:19.839Z,20.27
2022-09-02T23:23:04.665Z,20.08
2022-09-02T23:25:52.076Z,20.22
2022-09-02T23:28:32.198Z,20.33
2022-09-02T23:31:12.431Z,20.61
2022-09-02T23:34:00.810Z,20.13
2022-09-02T23:36:40.330Z,20.02
2022-09-02T23:39:22.811Z,20.24
2022-09-02T23:41:49.621Z,20.24
2022-09-02T23:44:16.688Z,20.24
2022-09-02T23:47:20.290Z,19.89
2022-09-02T23:50:02.682Z,19.92
2022-09-02T23:52:43.002Z,20.05
2022-09-02T23:55:23.680Z,20.03
2022-09-02T23:58:08.559Z,20.19
